sensor_id;sensor_type;location;lat;lon;timestamp;pressure;altitude;pressure_sealevel;temperature;humidity
41254;BME280;26987;59.928;30.306;2023-07-30T00:00:07;100164.56;;;14.85;100.00
41254;BME280;26987;59.928;30.306;2023-07-30T00:02:38;100159.97;;;14.86;100.00
41254;BME280;26987;59.928;30.306;2023-07-30T00:05:06;100095.06;;;14.36;100.00
41254;BME280;26987;59.928;30.306;2023-07-30T00:07:34;100167.50;;;14.84;100.00
41254;BME280;26987;59.928;30.306;2023-07-30T00:10:02;100160.22;;;14.84;100.00
41254;BME280;26987;59.928;30.306;2023-07-30T00:12:30;100161.31;;;14.83;100.00
41254;BME280;26987;59.928;30.306;2023-07-30T00:14:59;100167.50;;;14.84;100.00
41254;BME280;26987;59.928;30.306;2023-07-30T00:17:27;100139.72;;;14.66;100.00
41254;BME280;26987;59.928;30.306;2023-07-30T00:19:55;100158.34;;;14.85;100.00
41254;BME280;26987;59.928;30.306;2023-07-30T00:22:23;100158.91;;;14.87;100.00
41254;BME280;26987;59.928;30.306;2023-07-30T00:24:50;100169.94;;;14.85;100.00
41254;BME280;26987;59.928;30.306;2023-07-30T00:27:18;100177.78;;;14.87;100.00
41254;BME280;26987;59.928;30.306;2023-07-30T00:29:46;100171.28;;;14.83;100.00
41254;BME280;26987;59.928;30.306;2023-07-30T00:32:15;100174.72;;;14.78;100.00
41254;BME280;26987;59.928;30.306;2023-07-30T00:34:43;100168.94;;;14.74;100.00
41254;BME280;26987;59.928;30.306;2023-07-30T00:37:11;100181.72;;;14.79;100.00
41254;BME280;26987;59.928;30.306;2023-07-30T00:39:39;100155.31;;;14.64;100.00
41254;BME280;26987;59.928;30.306;2023-07-30T00:42:07;100175.53;;;14.79;100.00
41254;BME280;26987;59.928;30.306;2023-07-30T00:44:35;100172.59;;;14.80;100.00
41254;BME280;26987;59.928;30.306;2023-07-30T00:47:03;100177.16;;;14.80;100.00
41254;BME280;26987;59.928;30.306;2023-07-30T00:49:33;100171.28;;;14.83;100.00
41254;BME280;26987;59.928;30.306;2023-07-30T00:52:01;100171.75;;;14.80;100.00
41254;BME280;26987;59.928;30.306;2023-07-30T00:54:29;100173.97;;;14.83;100.00
41254;BME280;26987;59.928;30.306;2023-07-30T00:56:57;100186.97;;;14.86;100.00
41254;BME280;26987;59.928;30.306;2023-07-30T00:59:25;100177.16;;;14.80;100.00
41254;BME280;26987;59.928;30.306;2023-07-30T01:01:53;100181.25;;;14.82;100.00
41254;BME280;26987;59.928;30.306;2023-07-30T01:04:23;100179.88;;;14.80;100.00
41254;BME280;26987;59.928;30.306;2023-07-30T01:06:53;100172.22;;;14.76;100.00
41254;BME280;26987;59.928;30.306;2023-07-30T01:09:21;100183.13;;;14.82;100.00
41254;BME280;26987;59.928;30.306;2023-07-30T01:11:49;100184.03;;;14.87;100.00
41254;BME280;26987;59.928;30.306;2023-07-30T01:14:18;100173.38;;;14.81;100.00
41254;BME280;26987;59.928;30.306;2023-07-30T01:16:47;100097.03;;;14.41;100.00
41254;BME280;26987;59.928;30.306;2023-07-30T01:19:16;100185.47;;;14.95;100.00
41254;BME280;26987;59.928;30.306;2023-07-30T01:21:45;100184.97;;;14.98;100.00
41254;BME280;26987;59.928;30.306;2023-07-30T01:24:13;100181.75;;;15.01;100.00
41254;BME280;26987;59.928;30.306;2023-07-30T01:26:44;100148.84;;;14.82;100.00
41254;BME280;26987;59.928;30.306;2023-07-30T01:29:15;100186.16;;;15.08;100.00
41254;BME280;26987;59.928;30.306;2023-07-30T01:31:54;100186.22;;;15.13;100.00
41254;BME280;26987;59.928;30.306;2023-07-30T01:34:23;100171.28;;;15.05;100.00
41254;BME280;26987;59.928;30.306;2023-07-30T01:36:54;100185.16;;;15.14;100.00
41254;BME280;26987;59.928;30.306;2023-07-30T01:39:25;100188.97;;;15.18;100.00
41254;BME280;26987;59.928;30.306;2023-07-30T01:41:53;100183.34;;;15.20;100.00
41254;BME280;26987;59.928;30.306;2023-07-30T01:44:21;100184.09;;;15.15;100.00
41254;BME280;26987;59.928;30.306;2023-07-30T01:46:49;100171.16;;;15.17;100.00
41254;BME280;26987;59.928;30.306;2023-07-30T01:49:16;100190.38;;;15.21;100.00
41254;BME280;26987;59.928;30.306;2023-07-30T01:51:44;100183.09;;;15.21;100.00
41254;BME280;26987;59.928;30.306;2023-07-30T01:54:14;100181.22;;;15.22;100.00
41254;BME280;26987;59.928;30.306;2023-07-30T01:56:42;100163.69;;;15.02;100.00
41254;BME280;26987;59.928;30.306;2023-07-30T01:59:10;100184.41;;;15.19;100.00
41254;BME280;26987;59.928;30.306;2023-07-30T02:01:38;100190.13;;;15.22;100.00
41254;BME280;26987;59.928;30.306;2023-07-30T02:04:05;100199.59;;;15.25;100.00
41254;BME280;26987;59.928;30.306;2023-07-30T02:06:33;100206.13;;;15.29;100.00
41254;BME280;26987;59.928;30.306;2023-07-30T02:09:01;100191.13;;;15.16;100.00
41254;BME280;26987;59.928;30.306;2023-07-30T02:11:31;100212.09;;;15.31;100.00
41254;BME280;26987;59.928;30.306;2023-07-30T02:13:59;100212.41;;;15.35;100.00
41254;BME280;26987;59.928;30.306;2023-07-30T02:16:27;100201.59;;;15.35;100.00
41254;BME280;26987;59.928;30.306;2023-07-30T02:18:55;100209.19;;;15.38;100.00
41254;BME280;26987;59.928;30.306;2023-07-30T02:21:22;100213.06;;;15.42;100.00
41254;BME280;26987;59.928;30.306;2023-07-30T02:23:50;100207.66;;;15.42;100.00
41254;BME280;26987;59.928;30.306;2023-07-30T02:26:19;100218.47;;;15.42;100.00
41254;BME280;26987;59.928;30.306;2023-07-30T02:28:49;100225.78;;;15.47;100.00
41254;BME280;26987;59.928;30.306;2023-07-30T02:31:17;100220.09;;;15.43;100.00
41254;BME280;26987;59.928;30.306;2023-07-30T02:33:44;100220.63;;;15.45;100.00
41254;BME280;26987;59.928;30.306;2023-07-30T02:36:12;100221.97;;;15.43;100.00
41254;BME280;26987;59.928;30.306;2023-07-30T02:38:40;100226.03;;;15.45;100.00
41254;BME280;26987;59.928;30.306;2023-07-30T02:41:08;100230.81;;;15.38;100.00
41254;BME280;26987;59.928;30.306;2023-07-30T02:43:36;100227.06;;;15.39;100.00
41254;BME280;26987;59.928;30.306;2023-07-30T02:46:08;100237.38;;;15.42;100.00
41254;BME280;26987;59.928;30.306;2023-07-30T02:48:36;100221.34;;;15.35;100.00
41254;BME280;26987;59.928;30.306;2023-07-30T02:51:04;100236.34;;;15.48;100.00
41254;BME280;26987;59.928;30.306;2023-07-30T02:53:32;100238.59;;;15.57;100.00
41254;BME280;26987;59.928;30.306;2023-07-30T02:55:59;100245.72;;;15.63;100.00
41254;BME280;26987;59.928;30.306;2023-07-30T02:58:27;100239.84;;;15.71;100.00
41254;BME280;26987;59.928;30.306;2023-07-30T03:00:55;100245.84;;;15.79;100.00
41254;BME280;26987;59.928;30.306;2023-07-30T03:03:25;100245.09;;;15.83;100.00
41254;BME280;26987;59.928;30.306;2023-07-30T03:05:52;100251.38;;;15.89;100.00
41254;BME280;26987;59.928;30.306;2023-07-30T03:08:20;100253.66;;;15.97;100.00
41254;BME280;26987;59.928;30.306;2023-07-30T03:10:49;100252.66;;;16.04;100.00
41254;BME280;26987;59.928;30.306;2023-07-30T03:13:16;100253.81;;;16.13;100.00
41254;BME280;26987;59.928;30.306;2023-07-30T03:15:44;100263.78;;;16.40;99.59
41254;BME280;26987;59.928;30.306;2023-07-30T03:18:12;100266.66;;;16.61;98.65
41254;BME280;26987;59.928;30.306;2023-07-30T03:20:42;100263.47;;;16.69;97.54
41254;BME280;26987;59.928;30.306;2023-07-30T03:23:09;100269.19;;;16.78;96.57
41254;BME280;26987;59.928;30.306;2023-07-30T03:25:37;100261.16;;;16.88;96.16
41254;BME280;26987;59.928;30.306;2023-07-30T03:28:05;100276.13;;;17.01;95.64
41254;BME280;26987;59.928;30.306;2023-07-30T03:30:34;100270.81;;;17.12;94.52
41254;BME280;26987;59.928;30.306;2023-07-30T03:33:02;100281.22;;;17.36;92.95
41254;BME280;26987;59.928;30.306;2023-07-30T03:35:30;100268.31;;;17.64;92.12
41254;BME280;26987;59.928;30.306;2023-07-30T03:37:59;100278.25;;;18.69;87.53
41254;BME280;26987;59.928;30.306;2023-07-30T03:40:28;100279.00;;;19.11;83.87
41254;BME280;26987;59.928;30.306;2023-07-30T03:42:56;100280.94;;;18.90;84.18
41254;BME280;26987;59.928;30.306;2023-07-30T03:45:24;100280.41;;;18.51;85.34
41254;BME280;26987;59.928;30.306;2023-07-30T03:47:52;100277.41;;;18.17;87.51
41254;BME280;26987;59.928;30.306;2023-07-30T03:50:20;100283.28;;;17.82;89.30
41254;BME280;26987;59.928;30.306;2023-07-30T03:52:48;100283.53;;;17.65;91.02
41254;BME280;26987;59.928;30.306;2023-07-30T03:55:17;100283.19;;;17.51;92.21
41254;BME280;26987;59.928;30.306;2023-07-30T03:57:45;100283.63;;;17.32;93.12
41254;BME280;26987;59.928;30.306;2023-07-30T04:00:13;100288.25;;;17.37;93.74
41254;BME280;26987;59.928;30.306;2023-07-30T04:02:41;100295.28;;;17.33;93.99
41254;BME280;26987;59.928;30.306;2023-07-30T04:05:08;100295.59;;;17.42;93.17
41254;BME280;26987;59.928;30.306;2023-07-30T04:07:37;100300.00;;;17.58;92.65
41254;BME280;26987;59.928;30.306;2023-07-30T04:10:06;100303.16;;;18.09;90.66
41254;BME280;26987;59.928;30.306;2023-07-30T04:12:36;100318.16;;;18.89;86.20
41254;BME280;26987;59.928;30.306;2023-07-30T04:15:04;100320.25;;;19.34;84.60
41254;BME280;26987;59.928;30.306;2023-07-30T04:17:33;100324.72;;;21.01;76.12
41254;BME280;26987;59.928;30.306;2023-07-30T04:20:01;100336.00;;;22.30;69.93
41254;BME280;26987;59.928;30.306;2023-07-30T04:22:30;100322.69;;;22.43;68.11
41254;BME280;26987;59.928;30.306;2023-07-30T04:24:58;100332.53;;;22.77;66.91
41254;BME280;26987;59.928;30.306;2023-07-30T04:27:26;100339.69;;;23.06;65.57
41254;BME280;26987;59.928;30.306;2023-07-30T04:29:55;100330.06;;;23.09;65.43
41254;BME280;26987;59.928;30.306;2023-07-30T04:32:24;100322.75;;;23.04;64.58
41254;BME280;26987;59.928;30.306;2023-07-30T04:34:52;100322.97;;;23.08;64.49
41254;BME280;26987;59.928;30.306;2023-07-30T04:37:20;100327.34;;;24.53;59.83
41254;BME280;26987;59.928;30.306;2023-07-30T04:39:49;100321.78;;;26.25;53.35
41254;BME280;26987;59.928;30.306;2023-07-30T04:42:17;100321.97;;;27.42;49.57
41254;BME280;26987;59.928;30.306;2023-07-30T04:44:45;100324.72;;;27.42;49.52
41254;BME280;26987;59.928;30.306;2023-07-30T04:47:17;100335.56;;;28.20;46.80
41254;BME280;26987;59.928;30.306;2023-07-30T04:49:45;100334.03;;;29.37;43.40
41254;BME280;26987;59.928;30.306;2023-07-30T04:52:13;100330.72;;;29.97;40.52
41254;BME280;26987;59.928;30.306;2023-07-30T04:54:41;100325.47;;;30.49;39.18
41254;BME280;26987;59.928;30.306;2023-07-30T04:57:08;100330.38;;;29.99;39.99
41254;BME280;26987;59.928;30.306;2023-07-30T04:59:36;100326.84;;;28.98;41.23
41254;BME280;26987;59.928;30.306;2023-07-30T05:02:05;100327.03;;;28.13;43.62
41254;BME280;26987;59.928;30.306;2023-07-30T05:04:34;100301.66;;;27.25;45.63
41254;BME280;26987;59.928;30.306;2023-07-30T05:07:02;100317.59;;;26.36;47.39
41254;BME280;26987;59.928;30.306;2023-07-30T05:09:30;100318.53;;;26.14;49.09
41254;BME280;26987;59.928;30.306;2023-07-30T05:11:58;100310.63;;;26.56;47.98
41254;BME280;26987;59.928;30.306;2023-07-30T05:14:26;100317.47;;;27.37;45.62
41254;BME280;26987;59.928;30.306;2023-07-30T05:16:53;100320.44;;;29.06;42.20
41254;BME280;26987;59.928;30.306;2023-07-30T05:19:21;100327.09;;;30.66;39.08
41254;BME280;26987;59.928;30.306;2023-07-30T05:21:51;100325.19;;;31.87;36.39
41254;BME280;26987;59.928;30.306;2023-07-30T05:24:18;100318.72;;;32.39;35.72
41254;BME280;26987;59.928;30.306;2023-07-30T05:26:46;100320.41;;;31.48;36.42
41254;BME280;26987;59.928;30.306;2023-07-30T05:29:14;100329.47;;;31.65;36.36
41254;BME280;26987;59.928;30.306;2023-07-30T05:31:42;100341.22;;;32.33;35.00
41254;BME280;26987;59.928;30.306;2023-07-30T05:34:10;100340.31;;;32.29;34.82
41254;BME280;26987;59.928;30.306;2023-07-30T05:36:37;100346.06;;;31.81;35.87
41254;BME280;26987;59.928;30.306;2023-07-30T05:39:07;100347.03;;;32.48;34.98
41254;BME280;26987;59.928;30.306;2023-07-30T05:41:34;100336.19;;;33.06;33.62
41254;BME280;26987;59.928;30.306;2023-07-30T05:44:03;100344.38;;;33.49;32.87
41254;BME280;26987;59.928;30.306;2023-07-30T05:46:31;100338.19;;;33.59;32.64
41254;BME280;26987;59.928;30.306;2023-07-30T05:48:58;100325.81;;;33.03;33.01
41254;BME280;26987;59.928;30.306;2023-07-30T05:51:26;100339.72;;;33.30;32.82
41254;BME280;26987;59.928;30.306;2023-07-30T05:53:54;100349.53;;;33.00;33.72
41254;BME280;26987;59.928;30.306;2023-07-30T05:56:23;100348.44;;;33.28;33.31
41254;BME280;26987;59.928;30.306;2023-07-30T05:58:51;100348.63;;;33.16;32.78
41254;BME280;26987;59.928;30.306;2023-07-30T06:01:20;100345.66;;;32.81;33.65
41254;BME280;26987;59.928;30.306;2023-07-30T06:03:48;100315.50;;;32.56;33.68
41254;BME280;26987;59.928;30.306;2023-07-30T06:06:16;100312.44;;;32.62;33.97
41254;BME280;26987;59.928;30.306;2023-07-30T06:08:46;100355.28;;;32.88;33.70
41254;BME280;26987;59.928;30.306;2023-07-30T06:11:13;100337.63;;;32.33;34.17
41254;BME280;26987;59.928;30.306;2023-07-30T06:13:43;100343.84;;;32.06;34.76
41254;BME280;26987;59.928;30.306;2023-07-30T06:16:10;100347.78;;;32.05;34.78
41254;BME280;26987;59.928;30.306;2023-07-30T06:18:38;100348.59;;;32.26;34.44
41254;BME280;26987;59.928;30.306;2023-07-30T06:21:06;100342.88;;;32.58;34.09
41254;BME280;26987;59.928;30.306;2023-07-30T06:23:34;100347.03;;;32.48;34.24
41254;BME280;26987;59.928;30.306;2023-07-30T06:26:02;100345.97;;;32.53;33.77
41254;BME280;26987;59.928;30.306;2023-07-30T06:28:30;100345.50;;;32.51;34.14
41254;BME280;26987;59.928;30.306;2023-07-30T06:31:01;100368.53;;;32.75;33.76
41254;BME280;26987;59.928;30.306;2023-07-30T06:33:29;100369.03;;;31.98;34.42
41254;BME280;26987;59.928;30.306;2023-07-30T06:35:57;100373.28;;;31.95;34.86
41254;BME280;26987;59.928;30.306;2023-07-30T06:38:25;100368.88;;;31.74;34.35
41254;BME280;26987;59.928;30.306;2023-07-30T06:40:53;100364.91;;;31.75;34.81
41254;BME280;26987;59.928;30.306;2023-07-30T06:43:22;100373.94;;;31.52;35.21
41254;BME280;26987;59.928;30.306;2023-07-30T06:45:50;100376.25;;;31.50;35.07
41254;BME280;26987;59.928;30.306;2023-07-30T06:48:19;100384.66;;;31.90;34.88
41254;BME280;26987;59.928;30.306;2023-07-30T06:50:47;100363.47;;;31.81;34.64
41254;BME280;26987;59.928;30.306;2023-07-30T06:53:15;100375.78;;;31.48;35.18
41254;BME280;26987;59.928;30.306;2023-07-30T06:55:43;100370.44;;;31.55;34.94
41254;BME280;26987;59.928;30.306;2023-07-30T06:58:11;100377.13;;;31.54;35.22
41254;BME280;26987;59.928;30.306;2023-07-30T07:00:39;100379.53;;;31.07;36.08
41254;BME280;26987;59.928;30.306;2023-07-30T07:03:06;100376.44;;;30.36;37.67
41254;BME280;26987;59.928;30.306;2023-07-30T07:05:36;100363.91;;;29.84;38.68
41254;BME280;26987;59.928;30.306;2023-07-30T07:08:04;100371.72;;;29.82;38.50
41254;BME280;26987;59.928;30.306;2023-07-30T07:10:32;100369.88;;;29.12;40.61
41254;BME280;26987;59.928;30.306;2023-07-30T07:13:00;100371.25;;;28.38;41.74
41254;BME280;26987;59.928;30.306;2023-07-30T07:15:28;100375.28;;;28.19;42.90
41254;BME280;26987;59.928;30.306;2023-07-30T07:17:56;100373.50;;;27.93;44.23
41254;BME280;26987;59.928;30.306;2023-07-30T07:20:23;100366.00;;;27.42;44.54
41254;BME280;26987;59.928;30.306;2023-07-30T07:22:53;100375.28;;;27.28;45.13
41254;BME280;26987;59.928;30.306;2023-07-30T07:25:21;100370.25;;;26.74;46.66
41254;BME280;26987;59.928;30.306;2023-07-30T07:27:48;100367.69;;;26.51;47.99
41254;BME280;26987;59.928;30.306;2023-07-30T07:30:16;100376.72;;;26.07;48.97
41254;BME280;26987;59.928;30.306;2023-07-30T07:32:44;100371.84;;;25.95;50.09
41254;BME280;26987;59.928;30.306;2023-07-30T07:35:16;100377.63;;;25.85;50.62
41254;BME280;26987;59.928;30.306;2023-07-30T07:37:44;100366.63;;;25.67;52.04
41254;BME280;26987;59.928;30.306;2023-07-30T07:40:13;100372.75;;;25.32;52.69
41254;BME280;26987;59.928;30.306;2023-07-30T07:42:42;100375.19;;;25.34;52.06
41254;BME280;26987;59.928;30.306;2023-07-30T07:45:10;100381.91;;;25.18;53.04
41254;BME280;26987;59.928;30.306;2023-07-30T07:47:37;100380.09;;;25.14;53.54
41254;BME280;26987;59.928;30.306;2023-07-30T07:50:06;100356.81;;;25.02;53.93
41254;BME280;26987;59.928;30.306;2023-07-30T07:52:34;100376.34;;;25.01;53.58
41254;BME280;26987;59.928;30.306;2023-07-30T07:55:03;100382.97;;;24.86;54.14
41254;BME280;26987;59.928;30.306;2023-07-30T07:57:32;100383.88;;;24.95;54.88
41254;BME280;26987;59.928;30.306;2023-07-30T08:00:01;100384.38;;;24.74;54.96
41254;BME280;26987;59.928;30.306;2023-07-30T08:02:38;100388.09;;;24.78;54.65
41254;BME280;26987;59.928;30.306;2023-07-30T08:05:06;100390.59;;;24.66;53.96
41254;BME280;26987;59.928;30.306;2023-07-30T08:07:34;100364.69;;;24.26;55.70
41254;BME280;26987;59.928;30.306;2023-07-30T08:10:02;100407.00;;;24.43;55.46
41254;BME280;26987;59.928;30.306;2023-07-30T08:12:32;100401.66;;;24.38;55.64
41254;BME280;26987;59.928;30.306;2023-07-30T08:15:00;100385.16;;;24.29;56.48
41254;BME280;26987;59.928;30.306;2023-07-30T08:17:28;100401.94;;;24.50;55.73
41254;BME280;26987;59.928;30.306;2023-07-30T08:19:56;100404.25;;;24.43;56.09
41254;BME280;26987;59.928;30.306;2023-07-30T08:22:24;100391.72;;;24.28;54.42
41254;BME280;26987;59.928;30.306;2023-07-30T08:24:52;100397.78;;;24.39;54.78
41254;BME280;26987;59.928;30.306;2023-07-30T08:27:19;100405.75;;;24.26;55.02
41254;BME280;26987;59.928;30.306;2023-07-30T08:29:49;100409.50;;;24.30;55.23
41254;BME280;26987;59.928;30.306;2023-07-30T08:32:16;100402.31;;;24.06;55.95
41254;BME280;26987;59.928;30.306;2023-07-30T08:34:44;100398.16;;;24.09;55.46
41254;BME280;26987;59.928;30.306;2023-07-30T08:37:12;100389.78;;;23.91;55.89
41254;BME280;26987;59.928;30.306;2023-07-30T08:39:40;100406.50;;;23.90;56.10
41254;BME280;26987;59.928;30.306;2023-07-30T08:42:08;100404.97;;;23.98;55.71
41254;BME280;26987;59.928;30.306;2023-07-30T08:44:35;100398.28;;;23.90;55.70
41254;BME280;26987;59.928;30.306;2023-07-30T08:47:05;100402.84;;;23.94;56.17
41254;BME280;26987;59.928;30.306;2023-07-30T08:49:33;100393.19;;;23.97;55.75
41254;BME280;26987;59.928;30.306;2023-07-30T08:52:02;100401.31;;;24.16;54.78
41254;BME280;26987;59.928;30.306;2023-07-30T08:54:31;100390.13;;;24.27;54.21
41254;BME280;26987;59.928;30.306;2023-07-30T08:56:59;100397.84;;;24.25;52.66
41254;BME280;26987;59.928;30.306;2023-07-30T08:59:31;100403.34;;;24.25;53.16
41254;BME280;26987;59.928;30.306;2023-07-30T09:02:01;100407.28;;;24.18;53.86
41254;BME280;26987;59.928;30.306;2023-07-30T09:04:34;100406.16;;;24.19;53.32
41254;BME280;26987;59.928;30.306;2023-07-30T09:07:03;100397.19;;;24.65;52.73
41254;BME280;26987;59.928;30.306;2023-07-30T09:09:31;100382.78;;;24.36;52.82
41254;BME280;26987;59.928;30.306;2023-07-30T09:11:59;100396.03;;;24.43;51.71
41254;BME280;26987;59.928;30.306;2023-07-30T09:14:28;100380.13;;;24.45;52.42
41254;BME280;26987;59.928;30.306;2023-07-30T09:16:56;100360.91;;;24.22;52.12
41254;BME280;26987;59.928;30.306;2023-07-30T09:19:24;100406.50;;;24.55;51.78
41254;BME280;26987;59.928;30.306;2023-07-30T09:21:54;100401.19;;;24.59;50.74
41254;BME280;26987;59.928;30.306;2023-07-30T09:24:22;100397.50;;;24.63;49.31
41254;BME280;26987;59.928;30.306;2023-07-30T09:26:50;100397.31;;;24.60;50.61
41254;BME280;26987;59.928;30.306;2023-07-30T09:29:18;100385.19;;;24.52;50.55
41254;BME280;26987;59.928;30.306;2023-07-30T09:31:47;100407.84;;;24.66;50.75
41254;BME280;26987;59.928;30.306;2023-07-30T09:34:16;100403.66;;;24.69;50.20
41254;BME280;26987;59.928;30.306;2023-07-30T09:36:45;100403.56;;;24.74;50.28
41254;BME280;26987;59.928;30.306;2023-07-30T09:39:19;100389.91;;;24.83;49.37
41254;BME280;26987;59.928;30.306;2023-07-30T09:41:49;100402.31;;;24.80;49.76
41254;BME280;26987;59.928;30.306;2023-07-30T09:44:17;100389.09;;;24.82;48.62
41254;BME280;26987;59.928;30.306;2023-07-30T09:46:47;100398.22;;;24.92;48.57
41254;BME280;26987;59.928;30.306;2023-07-30T09:49:15;100390.94;;;24.87;48.78
41254;BME280;26987;59.928;30.306;2023-07-30T09:51:43;100407.16;;;24.84;48.62
41254;BME280;26987;59.928;30.306;2023-07-30T09:54:13;100408.09;;;24.79;49.09
41254;BME280;26987;59.928;30.306;2023-07-30T09:56:42;100415.78;;;24.91;49.33
41254;BME280;26987;59.928;30.306;2023-07-30T09:59:10;100408.66;;;24.90;48.11
41254;BME280;26987;59.928;30.306;2023-07-30T10:01:43;100417.72;;;24.90;48.49
41254;BME280;26987;59.928;30.306;2023-07-30T10:04:12;100400.69;;;24.79;47.86
41254;BME280;26987;59.928;30.306;2023-07-30T10:06:48;100410.13;;;24.87;48.28
41254;BME280;26987;59.928;30.306;2023-07-30T10:09:17;100411.63;;;24.79;48.50
41254;BME280;26987;59.928;30.306;2023-07-30T10:11:50;100404.41;;;24.84;48.41
41254;BME280;26987;59.928;30.306;2023-07-30T10:14:21;100398.56;;;24.76;48.21
41254;BME280;26987;59.928;30.306;2023-07-30T10:16:51;100400.50;;;24.76;47.34
41254;BME280;26987;59.928;30.306;2023-07-30T10:19:22;100404.91;;;24.86;47.48
41254;BME280;26987;59.928;30.306;2023-07-30T10:21:51;100401.03;;;24.87;46.97
41254;BME280;26987;59.928;30.306;2023-07-30T10:24:18;100410.03;;;24.78;47.35
41254;BME280;26987;59.928;30.306;2023-07-30T10:26:48;100412.50;;;24.66;47.46
41254;BME280;26987;59.928;30.306;2023-07-30T10:29:17;100411.00;;;24.60;47.15
41254;BME280;26987;59.928;30.306;2023-07-30T10:31:49;100411.81;;;24.60;47.34
41254;BME280;26987;59.928;30.306;2023-07-30T10:34:19;100416.38;;;24.65;47.40
41254;BME280;26987;59.928;30.306;2023-07-30T10:36:47;100414.63;;;24.69;46.87
41254;BME280;26987;59.928;30.306;2023-07-30T10:39:17;100420.41;;;24.67;46.83
41254;BME280;26987;59.928;30.306;2023-07-30T10:41:45;100417.31;;;24.60;47.08
41254;BME280;26987;59.928;30.306;2023-07-30T10:44:24;100407.78;;;24.58;47.47
41254;BME280;26987;59.928;30.306;2023-07-30T10:46:53;100369.94;;;24.23;46.78
41254;BME280;26987;59.928;30.306;2023-07-30T10:49:21;100422.72;;;24.51;47.03
41254;BME280;26987;59.928;30.306;2023-07-30T10:51:51;100413.38;;;24.52;47.49
41254;BME280;26987;59.928;30.306;2023-07-30T10:54:19;100420.25;;;24.64;47.38
41254;BME280;26987;59.928;30.306;2023-07-30T10:56:47;100426.34;;;24.61;47.29
41254;BME280;26987;59.928;30.306;2023-07-30T10:59:15;100426.47;;;24.55;48.18
41254;BME280;26987;59.928;30.306;2023-07-30T11:01:45;100425.31;;;24.56;47.54
41254;BME280;26987;59.928;30.306;2023-07-30T11:04:14;100424.69;;;24.37;47.83
41254;BME280;26987;59.928;30.306;2023-07-30T11:06:45;100371.19;;;24.02;47.76
41254;BME280;26987;59.928;30.306;2023-07-30T11:09:18;100438.53;;;24.54;48.42
41254;BME280;26987;59.928;30.306;2023-07-30T11:11:47;100405.31;;;24.33;47.86
41254;BME280;26987;59.928;30.306;2023-07-30T11:14:15;100433.91;;;24.41;48.21
41254;BME280;26987;59.928;30.306;2023-07-30T11:16:49;100425.56;;;24.46;48.57
41254;BME280;26987;59.928;30.306;2023-07-30T11:19:17;100421.97;;;24.37;48.89
41254;BME280;26987;59.928;30.306;2023-07-30T11:21:46;100431.88;;;24.33;48.56
41254;BME280;26987;59.928;30.306;2023-07-30T11:24:14;100432.72;;;24.33;49.41
41254;BME280;26987;59.928;30.306;2023-07-30T11:26:42;100411.25;;;24.26;49.51
41254;BME280;26987;59.928;30.306;2023-07-30T11:29:17;100429.13;;;24.47;49.85
41254;BME280;26987;59.928;30.306;2023-07-30T11:31:46;100436.97;;;24.39;48.65
41254;BME280;26987;59.928;30.306;2023-07-30T11:34:16;100426.25;;;24.29;48.59
41254;BME280;26987;59.928;30.306;2023-07-30T11:36:45;100433.16;;;24.26;48.94
41254;BME280;26987;59.928;30.306;2023-07-30T11:39:13;100428.47;;;24.27;48.93
41254;BME280;26987;59.928;30.306;2023-07-30T11:41:41;100435.56;;;24.28;49.24
41254;BME280;26987;59.928;30.306;2023-07-30T11:44:29;100431.97;;;24.41;48.92
41254;BME280;26987;59.928;30.306;2023-07-30T11:46:57;100431.72;;;24.29;49.05
41254;BME280;26987;59.928;30.306;2023-07-30T11:49:26;100430.28;;;24.31;49.38
41254;BME280;26987;59.928;30.306;2023-07-30T11:52:04;100432.91;;;24.37;49.98
41254;BME280;26987;59.928;30.306;2023-07-30T11:54:32;100432.72;;;24.19;51.17
41254;BME280;26987;59.928;30.306;2023-07-30T11:57:00;100434.16;;;24.16;50.80
41254;BME280;26987;59.928;30.306;2023-07-30T11:59:28;100432.03;;;24.13;51.51
41254;BME280;26987;59.928;30.306;2023-07-30T12:01:57;100429.78;;;24.01;51.04
41254;BME280;26987;59.928;30.306;2023-07-30T12:04:30;100434.78;;;23.99;51.63
41254;BME280;26987;59.928;30.306;2023-07-30T12:06:58;100437.81;;;23.84;52.57
41254;BME280;26987;59.928;30.306;2023-07-30T12:09:28;100440.16;;;23.76;52.32
41254;BME280;26987;59.928;30.306;2023-07-30T12:11:58;100442.38;;;23.74;52.80
41254;BME280;26987;59.928;30.306;2023-07-30T12:14:28;100439.25;;;23.67;53.42
41254;BME280;26987;59.928;30.306;2023-07-30T12:16:58;100437.94;;;23.64;53.48
41254;BME280;26987;59.928;30.306;2023-07-30T12:19:27;100432.16;;;23.66;53.92
41254;BME280;26987;59.928;30.306;2023-07-30T12:21:55;100421.91;;;23.58;53.07
41254;BME280;26987;59.928;30.306;2023-07-30T12:24:23;100440.06;;;23.67;53.38
41254;BME280;26987;59.928;30.306;2023-07-30T12:26:51;100442.06;;;23.62;53.12
41254;BME280;26987;59.928;30.306;2023-07-30T12:29:19;100443.47;;;23.59;53.68
41254;BME280;26987;59.928;30.306;2023-07-30T12:31:46;100428.97;;;23.59;53.78
41254;BME280;26987;59.928;30.306;2023-07-30T12:34:15;100436.19;;;23.54;53.42
41254;BME280;26987;59.928;30.306;2023-07-30T12:36:44;100438.19;;;23.49;53.79
41254;BME280;26987;59.928;30.306;2023-07-30T12:39:13;100442.16;;;23.42;53.32
41254;BME280;26987;59.928;30.306;2023-07-30T12:41:41;100441.69;;;23.35;53.51
41254;BME280;26987;59.928;30.306;2023-07-30T12:44:09;100438.31;;;23.24;54.08